Airfield :
LOGIN :

Register | Disclaimer

   EN    FR    IT 

 










Legend :    VFR   Marginal VFR   IFR   Intensive IFR   Very Intensive IFR
Visi :
Ceiling :
>= 8 km
>= 3000ft
5 to 8 km
1000 to 3000 ft
1500m to 5 km
500 to 1000 ft
800 to 1500m
200 to 500 ft
< 800m
< 200 ft
Symbols :   Thunderstorms  Fog  Heavy snow  Heavy precipitations  Wind > 20 kt
SIGMETs :     Misc.  Thunderstorms  Icing  Turbulence  Mountain Waves  Volcanic Ashes






- Airport Elevation : 2077 ft
- IATA code : FMM


EDJA - Memmingen

CURRENT METAR :
  • 282120Z AUTO 21005KT 9999 // OVC024/// 06/03 Q1013

EXPIRED METARs :
  • 282050Z 20006KT 9999 -DZ FEW027 OVC037 05/03 Q1014
  • 282020Z 21007KT 9999 -DZ BKN036 OVC041 06/03 Q1013
  • 281950Z 17005KT 9999 SCT036 BKN041 05/02 Q1013
  • 281920Z 16004KT 9999 FEW041 05/02 Q1013
  • 281850Z 15003KT 9999 FEW059 05/02 Q1013
  • 281820Z 16002KT CAVOK 04/02 Q1013

TAF TAF EDJA
Valid from the 28 at 18:00 until the 29 at 03:00 UTC


281700Z 2818/2903 20004KT 9999 SCT020
PROB30
TEMPO 2900/2903 3500 -RA BR OVC007



MET'MAP, your aeronautical weather chart ! - Copyright ORBIFLY December 2007 - Disclaimer

ORBIFLY MET'MAP TEAM :

Programming & Development : Alexandra Zaïnal
Original concept : Baudouin d'Aumeries
Technical & hardware support : Manuel Goepfert
Assistance : Marc-Olivier Méhu




SOURCES & CREDITS :

   NOAA